Time;durP1;ratioP1;P1;durP2;ratioP2;P2;SDS_P1;SDS_P2;PMS_P1;PMS_P2;Temp;Humidity;BMP_temperature;BMP_pressure;BME280_temperature;BME280_humidity;BME280_pressure;Samples;Min_cycle;Max_cycle;Signal;HPM_P1;HPM_P2
2024/04/16 00:01:03;;;;;;;129.18;11.95;;;;;;;14.21;100.00;96996.47;5371142;26;19992;-57
2024/04/16 00:03:30;;;;;;;59.58;8.02;;;;;;;13.24;100.00;96991.63;5369972;26;20437;-59
2024/04/16 00:05:55;;;;;;;100.15;10.52;;;;;;;12.61;100.00;96967.31;5366992;26;20059;-61
2024/04/16 00:08:21;;;;;;;87.78;9.43;;;;;;;12.02;100.00;96952.38;5369648;26;20000;-59
2024/04/16 00:10:46;;;;;;;58.35;7.95;;;;;;;13.03;100.00;96962.69;5366197;26;19996;-58
2024/04/16 00:13:11;;;;;;;44.13;7.40;;;;;;;12.10;100.00;96940.88;5363652;26;20018;-59
2024/04/16 00:15:37;;;;;;;87.63;11.07;;;;;;;12.34;100.00;96953.28;5363055;26;20004;-58
2024/04/16 00:18:02;;;;;;;103.30;11.35;;;;;;;10.93;100.00;96951.41;5367828;26;19992;-60
2024/04/16 00:20:28;;;;;;;54.58;9.80;;;;;;;11.20;100.00;96956.03;5368630;26;20295;-58
2024/04/16 00:22:53;;;;;;;108.88;11.27;;;;;;;12.15;100.00;96959.00;5363908;26;20073;-59
2024/04/16 00:25:18;;;;;;;67.63;9.15;;;;;;;10.75;100.00;96964.78;5370780;26;20361;-60
2024/04/16 00:27:44;;;;;;;79.97;9.43;;;;;;;11.32;100.00;96947.94;5375409;26;20452;-59
2024/04/16 00:30:09;;;;;;;92.20;11.52;;;;;;;10.34;100.00;96957.75;5363410;26;20491;-58
2024/04/16 00:32:35;;;;;;;76.30;8.93;;;;;;;10.73;100.00;96951.81;5366496;26;20003;-59
2024/04/16 00:35:00;;;;;;;117.50;13.30;;;;;;;10.02;100.00;96944.47;5367113;26;20084;-59
2024/04/16 00:37:25;;;;;;;72.10;9.57;;;;;;;9.83;100.00;96933.56;5370653;26;20312;-57
2024/04/16 00:39:51;;;;;;;89.07;9.73;;;;;;;10.38;100.00;96922.16;5365224;26;20425;-58
2024/04/16 00:42:16;;;;;;;48.45;12.45;;;;;;;10.36;100.00;96934.34;5365871;26;20001;-58
2024/04/16 00:44:42;;;;;;;55.40;7.88;;;;;;;11.17;100.00;96917.09;5369186;26;20076;-58
2024/04/16 00:47:08;;;;;;;103.47;12.55;;;;;;;10.55;100.00;96906.28;5365375;26;19996;-59
2024/04/16 00:49:35;;;;;;;73.45;9.35;;;;;;;9.51;100.00;96917.63;5372169;26;20000;-58
2024/04/16 00:52:01;;;;;;;127.05;14.23;;;;;;;10.53;100.00;96921.03;5365110;26;20371;-58
2024/04/16 00:54:27;;;;;;;71.22;9.82;;;;;;;9.99;100.00;96918.53;5364913;26;19996;-60
2024/04/16 00:56:55;;;;;;;59.65;8.20;;;;;;;10.57;100.00;96906.25;5366547;26;20345;-58
2024/04/16 00:59:23;;;;;;;53.22;8.38;;;;;;;10.66;100.00;96911.25;5366122;26;19992;-60
2024/04/16 01:01:48;;;;;;;99.93;11.80;;;;;;;10.09;100.00;96923.59;5351707;26;20011;-58
2024/04/16 01:04:14;;;;;;;61.58;8.15;;;;;;;9.76;100.00;96922.41;5365765;26;20344;-61
2024/04/16 01:06:40;;;;;;;65.68;11.25;;;;;;;10.35;100.00;96920.47;5366008;26;20008;-58
2024/04/16 01:09:06;;;;;;;109.88;11.82;;;;;;;9.44;100.00;96923.81;5364414;26;20004;-59
2024/04/16 01:11:31;;;;;;;64.53;8.10;;;;;;;10.18;100.00;96915.63;5368267;26;20010;-60
2024/04/16 01:13:57;;;;;;;95.32;10.60;;;;;;;12.23;100.00;96909.25;5367483;26;19997;-61
2024/04/16 01:16:22;;;;;;;80.03;9.50;;;;;;;11.42;100.00;96921.69;5366689;26;20438;-62
2024/04/16 01:18:49;;;;;;;48.90;7.45;;;;;;;12.92;100.00;96920.38;5369497;26;20004;-59
2024/04/16 01:21:14;;;;;;;95.70;10.43;;;;;;;11.00;100.00;96909.66;5365617;26;20641;-60
2024/04/16 01:23:40;;;;;;;68.65;8.43;;;;;;;11.74;100.00;96909.66;5365409;26;20010;-60
2024/04/16 01:26:05;;;;;;;88.40;10.18;;;;;;;11.10;100.00;96902.50;5366290;26;19999;-59
2024/04/16 01:28:30;;;;;;;47.38;7.82;;;;;;;11.77;100.00;96900.88;5365768;26;20262;-61
2024/04/16 01:30:56;;;;;;;93.25;10.45;;;;;;;10.71;100.00;96901.59;5363204;26;19992;-59
2024/04/16 01:33:21;;;;;;;58.47;8.55;;;;;;;10.75;100.00;96908.44;5365754;26;20068;-59
2024/04/16 01:35:47;;;;;;;59.65;8.10;;;;;;;10.72;100.00;96897.25;5365869;26;20082;-60
2024/04/16 01:38:12;;;;;;;52.13;8.02;;;;;;;11.23;100.00;96895.25;5365975;26;20084;-60
2024/04/16 01:40:37;;;;;;;80.72;18.38;;;;;;;11.70;100.00;96900.19;5368752;26;20353;-59
2024/04/16 01:43:03;;;;;;;103.03;11.18;;;;;;;10.55;100.00;96901.91;5363124;26;20000;-61
2024/04/16 01:45:28;;;;;;;64.13;8.20;;;;;;;10.47;100.00;96893.41;5366559;26;20004;-62
2024/04/16 01:47:54;;;;;;;67.53;8.88;;;;;;;10.35;100.00;96872.88;5363408;26;20510;-61
2024/04/16 01:50:19;;;;;;;72.80;9.48;;;;;;;11.02;100.00;96876.66;5370411;26;20073;-58
2024/04/16 01:52:44;;;;;;;62.85;8.20;;;;;;;9.60;100.00;96874.22;5363122;26;20003;-59
2024/04/16 01:55:10;;;;;;;105.60;13.90;;;;;;;11.95;100.00;96882.16;5365878;26;20542;-58
2024/04/16 01:57:35;;;;;;;66.85;9.50;;;;;;;10.72;100.00;96886.88;5364865;26;20359;-60
2024/04/16 02:00:02;;;;;;;57.00;10.57;;;;;;;11.29;100.00;96862.13;5364650;26;20411;-60
2024/04/16 02:02:30;;;;;;;78.95;9.48;;;;;;;10.76;100.00;96873.75;5362346;26;20541;-58
2024/04/16 02:04:55;;;;;;;68.00;9.10;;;;;;;10.73;100.00;96857.34;5365645;26;20089;-59
2024/04/16 02:07:21;;;;;;;65.25;9.25;;;;;;;11.17;100.00;96878.06;5367419;26;19999;-63
2024/04/16 02:09:47;;;;;;;80.05;10.23;;;;;;;9.93;100.00;96863.25;5365963;26;20002;-58
2024/04/16 02:12:12;;;;;;;90.15;9.77;;;;;;;9.71;100.00;96840.28;5364386;26;20000;-58
2024/04/16 02:14:37;;;;;;;87.20;31.13;;;;;;;12.43;100.00;96847.91;5364791;26;20048;-59
2024/04/16 02:17:03;;;;;;;104.47;11.77;;;;;;;10.78;100.00;96864.19;5361823;26;20377;-58
2024/04/16 02:19:28;;;;;;;65.78;10.75;;;;;;;11.58;100.00;96865.75;5365859;26;19996;-60
2024/04/16 02:21:54;;;;;;;71.22;9.18;;;;;;;11.47;100.00;96865.16;5362023;26;20119;-60
2024/04/16 02:24:20;;;;;;;69.13;9.20;;;;;;;10.79;100.00;96847.69;5366074;26;20008;-58
2024/04/16 02:26:45;;;;;;;53.95;8.95;;;;;;;11.29;100.00;96861.28;5368197;26;19995;-59
2024/04/16 02:29:10;;;;;;;85.25;9.38;;;;;;;11.32;100.00;96864.66;5360978;26;20439;-61
2024/04/16 02:31:36;;;;;;;78.00;9.13;;;;;;;12.02;100.00;96851.59;5362396;26;20231;-62
2024/04/16 02:34:01;;;;;;;94.65;11.38;;;;;;;11.22;100.00;96846.69;5368589;26;20415;-59
2024/04/16 02:36:27;;;;;;;64.97;8.88;;;;;;;10.44;100.00;96854.50;5368398;26;19996;-63
2024/04/16 02:38:52;;;;;;;73.43;9.70;;;;;;;9.72;100.00;96837.66;5366547;26;20042;-59
2024/04/16 02:41:17;;;;;;;61.75;13.75;;;;;;;10.85;100.00;96841.47;5371108;26;20077;-58
2024/04/16 02:43:43;;;;;;;62.28;12.27;;;;;;;11.16;100.00;96856.38;5367870;26;20078;-59
2024/04/16 02:46:08;;;;;;;115.55;12.40;;;;;;;11.42;100.00;96861.81;5362677;26;20011;-61
2024/04/16 02:48:33;;;;;;;60.10;14.02;;;;;;;10.74;100.00;96853.88;5367449;26;20158;-60
2024/04/16 02:51:00;;;;;;;92.50;11.50;;;;;;;10.75;100.00;96856.44;5368717;26;19996;-60
2024/04/16 02:53:26;;;;;;;75.00;10.20;;;;;;;10.93;100.00;96851.69;5368390;26;20007;-59
2024/04/16 02:55:51;;;;;;;70.18;8.77;;;;;;;10.75;100.00;96839.97;5373464;26;20014;-61
2024/04/16 02:58:17;;;;;;;66.35;9.50;;;;;;;10.16;100.00;96847.22;5366589;26;20005;-61
2024/04/16 03:00:42;;;;;;;63.67;8.35;;;;;;;10.35;100.00;96846.88;5371440;26;20003;-58
2024/04/16 03:03:10;;;;;;;109.60;32.88;;;;;;;10.76;100.00;96839.09;5365653;26;19995;-58
2024/04/16 03:05:36;;;;;;;61.75;10.85;;;;;;;11.28;100.00;96843.97;5370809;26;20106;-59
2024/04/16 03:08:01;;;;;;;105.22;30.13;;;;;;;11.77;100.00;96836.59;5368219;26;20373;-60
2024/04/16 03:10:26;;;;;;;77.13;15.00;;;;;;;11.29;100.00;96830.03;5364624;26;19996;-61
2024/04/16 03:12:53;;;;;;;355.05;296.48;;;;;;;11.25;100.00;96802.38;5369039;26;20000;-62
2024/04/16 03:15:18;;;;;;;58.15;8.50;;;;;;;11.74;100.00;96805.47;5365709;26;20006;-59
2024/04/16 03:17:43;;;;;;;74.85;19.52;;;;;;;13.52;100.00;96836.72;5370811;26;20005;-58
2024/04/16 03:20:09;;;;;;;84.78;9.70;;;;;;;13.04;100.00;96833.00;5365447;26;20000;-60
2024/04/16 03:22:34;;;;;;;48.33;8.60;;;;;;;10.97;100.00;96824.72;5369201;26;20011;-58
2024/04/16 03:25:00;;;;;;;97.22;14.35;;;;;;;13.23;100.00;96820.22;5362984;26;20643;-61
2024/04/16 03:27:25;;;;;;;58.78;8.45;;;;;;;12.99;100.00;96825.34;5367818;26;20700;-60
2024/04/16 03:29:50;;;;;;;58.40;8.40;;;;;;;13.05;100.00;96829.47;5367052;26;19999;-62
2024/04/16 03:32:16;;;;;;;95.55;11.23;;;;;;;13.22;100.00;96845.47;5364789;26;20001;-58
2024/04/16 03:34:41;;;;;;;55.92;8.88;;;;;;;12.30;100.00;96831.75;5369714;26;20003;-62
2024/04/16 03:37:07;;;;;;;92.85;11.07;;;;;;;11.30;100.00;96827.41;5364961;26;19992;-59
2024/04/16 03:39:32;;;;;;;87.18;12.70;;;;;;;11.24;100.00;96827.53;5369657;26;20337;-60
2024/04/16 03:41:57;;;;;;;71.53;9.48;;;;;;;11.00;100.00;96829.00;5368057;26;19995;-61
2024/04/16 03:44:23;;;;;;;56.35;8.52;;;;;;;10.52;100.00;96834.41;5366853;26;20521;-61
2024/04/16 03:46:48;;;;;;;73.93;9.20;;;;;;;10.22;100.00;96835.88;5367636;26;20521;-60
2024/04/16 03:49:13;;;;;;;86.22;11.25;;;;;;;9.73;100.00;96838.53;5365463;26;19996;-58
2024/04/16 03:51:38;;;;;;;67.10;21.73;;;;;;;9.40;100.00;96820.94;5364769;26;20015;-60
2024/04/16 03:54:04;;;;;;;99.03;9.93;;;;;;;8.94;100.00;96807.84;5365489;26;19996;-58
2024/04/16 03:56:29;;;;;;;71.00;10.65;;;;;;;10.78;100.00;96801.75;5366497;26;20051;-58
2024/04/16 03:59:15;;;;;;;59.65;7.75;;;;;;;8.52;100.00;96811.03;5364872;26;20333;-60
2024/04/16 04:01:40;;;;;;;90.45;12.23;;;;;;;9.51;100.00;96808.63;5364812;26;20007;-58
2024/04/16 04:04:05;;;;;;;113.82;10.20;;;;;;;9.18;100.00;96821.31;5368572;26;20008;-59
2024/04/16 04:06:30;;;;;;;62.17;9.73;;;;;;;8.54;100.00;96819.66;5369693;26;20015;-58
2024/04/16 04:08:56;;;;;;;95.55;10.57;;;;;;;7.91;100.00;96801.44;5365307;26;20105;-60
2024/04/16 04:11:21;;;;;;;58.05;8.02;;;;;;;8.92;100.00;96809.63;5364930;26;19999;-60
2024/04/16 04:13:46;;;;;;;64.00;9.07;;;;;;;9.22;100.00;96822.97;5366136;26;19995;-59
2024/04/16 04:16:14;;;;;;;110.15;12.75;;;;;;;8.73;100.00;96811.66;5371584;26;19996;-58
2024/04/16 04:18:39;;;;;;;57.97;11.02;;;;;;;8.93;100.00;96802.69;5368891;26;20519;-60
2024/04/16 04:21:04;;;;;;;91.90;9.68;;;;;;;8.83;100.00;96794.19;5362985;26;20519;-61
2024/04/16 04:23:30;;;;;;;80.43;8.50;;;;;;;9.18;100.00;96795.38;5372012;26;19991;-60
2024/04/16 04:25:55;;;;;;;61.60;15.48;;;;;;;9.26;100.00;96808.22;5368945;26;20415;-61
2024/04/16 04:28:21;;;;;;;62.88;7.03;;;;;;;9.34;100.00;96813.25;5365174;26;20429;-59
2024/04/16 04:30:49;;;;;;;80.93;8.02;;;;;;;9.68;100.00;96820.44;5366288;26;19993;-57
2024/04/16 04:33:15;;;;;;;93.82;9.70;;;;;;;8.11;100.00;96835.75;5371444;26;20003;-58
2024/04/16 04:35:40;;;;;;;65.57;7.07;;;;;;;8.58;100.00;96854.19;5365922;26;20304;-61
2024/04/16 04:38:05;;;;;;;121.32;12.82;;;;;;;12.13;100.00;96889.56;5366031;26;20431;-57
2024/04/16 04:40:33;;;;;;;57.95;8.43;;;;;;;13.84;100.00;96941.88;5366797;26;20398;-60
2024/04/16 04:42:59;;;;;;;63.58;8.23;;;;;;;12.72;100.00;96940.94;5366272;26;20008;-58
2024/04/16 04:45:25;;;;;;;62.60;9.73;;;;;;;14.88;100.00;96933.94;5367774;26;20019;-59
2024/04/16 04:47:50;;;;;;;66.13;8.70;;;;;;;12.57;100.00;96930.91;5368742;26;20438;-58
2024/04/16 04:50:16;;;;;;;72.47;8.95;;;;;;;11.54;100.00;96934.41;5365990;26;20043;-58
2024/04/16 04:52:41;;;;;;;64.72;8.70;;;;;;;11.29;100.00;96919.38;5367052;26;20293;-60
2024/04/16 04:55:06;;;;;;;92.63;10.30;;;;;;;8.67;100.00;96912.81;5366122;26;20000;-60
2024/04/16 04:57:32;;;;;;;71.18;8.30;;;;;;;6.47;100.00;96876.78;5366211;26;20442;-57
2024/04/16 04:59:57;;;;;;;91.25;22.88;;;;;;;8.32;100.00;96878.69;5366998;26;20010;-58
2024/04/16 05:02:22;;;;;;;59.92;10.63;;;;;;;8.77;100.00;96900.59;5358005;26;20485;-60
2024/04/16 05:04:48;;;;;;;61.58;7.22;;;;;;;7.69;100.00;96897.44;5367101;26;20016;-60
2024/04/16 05:07:13;;;;;;;109.07;11.32;;;;;;;6.94;100.00;96891.16;5366014;26;19999;-59
2024/04/16 05:09:38;;;;;;;70.05;8.90;;;;;;;8.32;100.00;96908.00;5363067;26;20015;-58
2024/04/16 05:12:04;;;;;;;81.88;17.45;;;;;;;6.77;100.00;96910.22;5363066;26;19996;-59
2024/04/16 05:14:29;;;;;;;77.82;10.93;;;;;;;8.31;100.00;96905.44;5364670;26;20098;-58
2024/04/16 05:16:54;;;;;;;76.20;8.50;;;;;;;7.11;100.00;96914.31;5363414;26;20461;-58
2024/04/16 05:19:20;;;;;;;122.40;29.92;;;;;;;8.29;100.00;96912.38;5367664;26;21419;-57
2024/04/16 05:21:45;;;;;;;111.55;24.42;;;;;;;9.10;100.00;96914.81;5364558;26;20011;-57
2024/04/16 05:24:12;;;;;;;118.70;17.13;;;;;;;9.53;100.00;96932.34;5366396;26;20277;-59
2024/04/16 05:26:37;;;;;;;66.07;10.93;;;;;;;8.57;100.00;96931.06;5364524;26;20100;-58
2024/04/16 05:29:03;;;;;;;77.97;15.77;;;;;;;9.25;100.00;96936.22;5364895;26;20000;-60
2024/04/16 05:31:28;;;;;;;84.97;9.95;;;;;;;8.68;100.00;96930.06;5361803;26;20335;-58
2024/04/16 05:33:53;;;;;;;65.82;10.40;;;;;;;8.14;100.00;96927.22;5366496;26;20015;-57
2024/04/16 05:36:19;;;;;;;109.53;23.45;;;;;;;7.71;100.00;96932.84;5364031;26;20008;-60
2024/04/16 05:38:44;;;;;;;83.25;15.82;;;;;;;6.79;100.00;96929.13;5363746;26;20335;-61
2024/04/16 05:41:09;;;;;;;122.68;14.00;;;;;;;9.53;100.00;96943.56;5363082;26;20483;-58
2024/04/16 05:43:35;;;;;;;60.65;10.20;;;;;;;10.58;100.00;96934.78;5367133;26;20004;-59
2024/04/16 05:46:00;;;;;;;112.40;37.75;;;;;;;10.40;100.00;96928.19;5364449;26;20141;-60
2024/04/16 05:48:26;;;;;;;68.53;14.45;;;;;;;12.30;100.00;96925.59;5364942;26;20011;-58
2024/04/16 05:50:51;;;;;;;64.38;8.65;;;;;;;11.03;100.00;96920.84;5368667;26;20011;-59
2024/04/16 05:53:16;;;;;;;102.13;9.52;;;;;;;10.80;100.00;96930.00;5359400;26;20011;-59
2024/04/16 05:55:42;;;;;;;73.13;13.98;;;;;;;11.09;100.00;96921.59;5363957;26;20755;-60
2024/04/16 05:58:10;;;;;;;77.75;9.35;;;;;;;10.78;100.00;96931.78;5393542;26;20005;-58
2024/04/16 06:00:39;;;;;;;75.15;7.72;;;;;;;12.48;100.00;96926.84;5363765;26;19999;-60
2024/04/16 06:03:04;;;;;;;73.80;10.15;;;;;;;15.47;100.00;96921.19;5363292;26;20003;-58
2024/04/16 06:05:30;;;;;;;55.97;7.30;;;;;;;17.13;100.00;96931.59;5363108;26;20874;-59
2024/04/16 06:07:56;;;;;;;74.38;10.35;;;;;;;19.11;85.83;96918.19;5363418;26;19997;-59
2024/04/16 06:10:22;;;;;;;69.10;9.77;;;;;;;19.06;67.49;96907.06;5365475;26;19996;-58
2024/04/16 06:12:47;;;;;;;45.30;7.90;;;;;;;19.78;65.66;96901.25;5367002;26;20000;-58
2024/04/16 06:15:12;;;;;;;68.50;9.18;;;;;;;20.36;61.15;96901.41;5365626;26;20003;-61
2024/04/16 06:17:38;;;;;;;52.13;8.23;;;;;;;20.86;64.89;96893.06;5364555;26;20019;-58
2024/04/16 06:20:04;;;;;;;54.05;8.27;;;;;;;17.02;62.34;96897.94;5363553;26;20076;-59
2024/04/16 06:22:29;;;;;;;52.63;8.50;;;;;;;16.18;100.00;96901.66;5366077;26;20072;-60
2024/04/16 06:24:54;;;;;;;68.40;8.80;;;;;;;14.48;100.00;96905.72;5370737;26;20000;-58
2024/04/16 06:27:20;;;;;;;66.65;9.02;;;;;;;14.80;100.00;96903.66;5366301;26;20008;-60
2024/04/16 06:29:45;;;;;;;38.85;7.20;;;;;;;15.02;100.00;96909.84;5366199;26;20589;-60
2024/04/16 06:32:11;;;;;;;64.22;9.55;;;;;;;14.02;100.00;96913.41;5361448;26;20019;-63
2024/04/16 06:34:36;;;;;;;53.63;8.73;;;;;;;11.97;100.00;96913.41;5367935;26;20011;-60
2024/04/16 06:37:02;;;;;;;73.32;10.63;;;;;;;10.76;100.00;96917.13;5367358;26;20011;-58
2024/04/16 06:39:27;;;;;;;88.03;10.90;;;;;;;13.40;100.00;96921.53;5358904;26;20461;-58
2024/04/16 06:41:53;;;;;;;74.43;9.80;;;;;;;12.19;100.00;96924.16;5365441;26;20555;-58
2024/04/16 06:44:18;;;;;;;72.05;9.77;;;;;;;13.07;100.00;96919.88;5364069;26;20008;-58
2024/04/16 06:46:43;;;;;;;58.45;9.02;;;;;;;16.18;100.00;96906.06;5363583;26;20857;-59
2024/04/16 06:49:09;;;;;;;61.00;9.23;;;;;;;15.50;100.00;96915.81;5365292;26;20401;-58
2024/04/16 06:51:34;;;;;;;50.15;9.02;;;;;;;14.05;99.80;96922.00;5362786;26;20015;-62
2024/04/16 06:53:59;;;;;;;62.55;10.48;;;;;;;11.98;100.00;96915.97;5362761;26;20357;-58
2024/04/16 06:56:25;;;;;;;84.25;10.68;;;;;;;14.55;100.00;96911.56;5363817;26;20004;-60
2024/04/16 06:58:50;;;;;;;51.97;8.40;;;;;;;15.21;100.00;96915.22;5365085;26;19999;-61
2024/04/16 07:01:15;;;;;;;81.03;10.88;;;;;;;14.84;100.00;96907.00;5360865;26;20414;-61
2024/04/16 07:03:41;;;;;;;65.40;9.43;;;;;;;15.21;100.00;96910.84;5366582;26;20457;-58
2024/04/16 07:06:06;;;;;;;76.20;23.77;;;;;;;13.88;100.00;96912.13;5365117;26;20010;-59
2024/04/16 07:08:32;;;;;;;53.38;8.73;;;;;;;15.46;100.00;96914.22;5359728;26;20447;-62
2024/04/16 07:10:57;;;;;;;63.47;9.77;;;;;;;13.59;100.00;96921.78;5365597;26;20335;-60
2024/04/16 07:13:23;;;;;;;80.90;10.45;;;;;;;13.83;100.00;96924.50;5367356;26;20097;-60
2024/04/16 07:15:48;;;;;;;49.30;7.90;;;;;;;12.25;100.00;96920.50;5367072;26;20000;-60
2024/04/16 07:18:13;;;;;;;83.70;10.75;;;;;;;14.12;100.00;96917.44;5367393;26;20015;-60
2024/04/16 07:20:46;;;;;;;49.83;7.65;;;;;;;13.74;100.00;96907.34;5366091;26;20015;-58
2024/04/16 07:23:11;;;;;;;64.13;8.57;;;;;;;13.44;100.00;96902.25;5363296;26;20138;-60
2024/04/16 07:25:36;;;;;;;66.13;8.82;;;;;;;13.44;100.00;96902.25;5364011;26;20003;-60
2024/04/16 07:28:02;;;;;;;60.85;9.30;;;;;;;15.75;97.97;96892.06;5364466;26;19996;-59
2024/04/16 07:30:27;;;;;;;89.28;12.13;;;;;;;14.24;97.87;96891.72;5361193;26;20357;-62
2024/04/16 07:32:53;;;;;;;80.68;10.63;;;;;;;13.70;100.00;96899.69;5368070;26;20031;-59
2024/04/16 07:35:18;;;;;;;67.85;9.98;;;;;;;12.89;100.00;96890.84;5364116;26;20001;-58
2024/04/16 07:37:43;;;;;;;63.35;9.80;;;;;;;13.85;100.00;96888.69;5371753;26;20000;-60
2024/04/16 07:40:09;;;;;;;67.93;9.35;;;;;;;12.52;100.00;96891.94;5364186;26;20352;-61
2024/04/16 07:42:34;;;;;;;61.53;8.48;;;;;;;12.41;100.00;96880.97;5365935;26;20118;-59
2024/04/16 07:44:59;;;;;;;87.93;42.13;;;;;;;13.31;100.00;96873.03;5367086;26;20853;-60
2024/04/16 07:47:25;;;;;;;80.55;16.23;;;;;;;12.61;100.00;96876.03;5366596;26;20483;-59
2024/04/16 07:49:50;;;;;;;62.13;8.77;;;;;;;14.40;100.00;96881.59;5368112;26;20000;-61
2024/04/16 07:52:15;;;;;;;88.10;31.25;;;;;;;13.62;100.00;96873.84;5363357;26;20510;-61
2024/04/16 07:54:40;;;;;;;65.93;9.45;;;;;;;13.37;100.00;96875.44;5370162;26;20012;-60
2024/04/16 07:57:06;;;;;;;66.03;9.20;;;;;;;15.01;100.00;96868.88;5365303;26;20585;-59
2024/04/16 07:59:31;;;;;;;63.38;8.60;;;;;;;15.98;100.00;96868.44;5364959;26;20096;-61
2024/04/16 08:01:57;;;;;;;73.43;9.40;;;;;;;15.41;100.00;96869.03;5364559;26;20004;-59
2024/04/16 08:04:22;;;;;;;89.28;11.27;;;;;;;16.99;100.00;96866.53;5368058;26;19999;-60
2024/04/16 08:06:48;;;;;;;52.33;8.73;;;;;;;15.83;94.82;96860.31;5371600;26;20007;-62
2024/04/16 08:09:14;;;;;;;49.45;8.35;;;;;;;16.01;83.82;96858.66;5364975;26;20075;-59
2024/04/16 08:11:39;;;;;;;58.92;8.82;;;;;;;15.85;97.85;96857.63;5368902;26;20011;-59
2024/04/16 08:14:04;;;;;;;58.63;8.48;;;;;;;16.82;93.04;96864.72;5368925;26;20000;-59
2024/04/16 08:16:30;;;;;;;85.50;9.88;;;;;;;18.78;76.10;96845.34;5380641;26;20037;-59
2024/04/16 08:18:55;;;;;;;58.22;8.23;;;;;;;18.85;72.70;96850.19;5365778;26;20082;-62
2024/04/16 08:21:22;;;;;;;67.80;8.93;;;;;;;19.40;74.97;96844.53;5365399;26;20072;-58
2024/04/16 08:23:51;;;;;;;41.08;6.63;;;;;;;18.28;77.03;96843.59;5365311;26;20340;-59
2024/04/16 08:26:17;;;;;;;67.18;8.25;;;;;;;17.79;78.37;96847.81;5363832;26;20315;-59
2024/04/16 08:28:42;;;;;;;41.58;7.22;;;;;;;15.90;86.89;96846.91;5364256;26;20008;-61
2024/04/16 08:31:08;;;;;;;70.68;9.75;;;;;;;16.10;94.23;96864.44;5368180;26;20000;-58
2024/04/16 08:33:33;;;;;;;61.55;17.90;;;;;;;15.04;100.00;96851.25;5362127;26;20442;-59
2024/04/16 08:35:58;;;;;;;62.33;8.38;;;;;;;15.20;100.00;96854.13;5368582;26;20040;-59
2024/04/16 08:38:24;;;;;;;86.40;10.02;;;;;;;14.34;99.67;96840.81;5367915;26;20082;-61
2024/04/16 08:40:49;;;;;;;58.75;8.13;;;;;;;16.02;100.00;96849.03;5366155;26;20070;-58
2024/04/16 08:43:14;;;;;;;46.42;7.20;;;;;;;14.58;89.48;96853.88;5363664;26;20366;-59
2024/04/16 08:45:44;;;;;;;42.58;7.22;;;;;;;14.88;100.00;96851.00;5369099;26;20015;-58
2024/04/16 08:48:11;;;;;;;63.15;8.88;;;;;;;15.10;100.00;96842.31;5365175;26;20007;-59
2024/04/16 08:50:36;;;;;;;56.53;9.65;;;;;;;15.53;100.00;96837.09;5364905;26;20011;-58
2024/04/16 08:53:03;;;;;;;68.50;19.02;;;;;;;14.62;100.00;96845.00;5368300;26;20018;-59
2024/04/16 08:55:30;;;;;;;93.35;11.40;;;;;;;15.66;100.00;96847.06;5366220;26;20981;-61
2024/04/16 08:57:56;;;;;;;118.68;80.10;;;;;;;15.78;100.00;96830.81;5369995;26;19996;-58
2024/04/16 09:00:22;;;;;;;76.82;9.50;;;;;;;14.64;77.31;96837.94;5367821;26;20399;-59
2024/04/16 09:02:50;;;;;;;134.88;100.00;;;;;;;14.10;86.32;96839.97;5367470;26;20635;-58
2024/04/16 09:05:16;;;;;;;52.38;12.23;;;;;;;16.95;100.00;96836.09;5365584;26;19999;-58
2024/04/16 09:07:41;;;;;;;48.55;7.13;;;;;;;15.62;91.53;96843.69;5368823;26;20003;-58
2024/04/16 09:10:29;;;;;;;74.55;24.98;;;;;;;15.23;100.00;96851.38;5339654;26;20323;-57
2024/04/16 09:12:54;;;;;;;58.65;8.23;;;;;;;16.39;100.00;96844.78;5366704;26;20121;-59
2024/04/16 09:15:20;;;;;;;75.57;9.20;;;;;;;16.19;100.00;96832.56;5362379;26;20007;-57
2024/04/16 09:17:50;;;;;;;41.13;7.18;;;;;;;20.70;80.15;96839.53;5369806;26;19999;-59
2024/04/16 09:20:26;;;;;;;37.78;6.75;;;;;;;19.70;62.79;96822.59;5365966;26;20019;-59
2024/04/16 09:22:52;;;;;;;53.28;7.43;;;;;;;17.46;69.60;96831.94;5367250;26;20003;-58
2024/04/16 09:25:19;;;;;;;47.13;18.30;;;;;;;15.99;79.32;96813.31;5363627;26;20000;-59
2024/04/16 09:27:49;;;;;;;54.67;8.20;;;;;;;15.99;83.54;96821.19;5367861;26;20018;-58
2024/04/16 09:30:16;;;;;;;67.53;26.00;;;;;;;17.29;85.48;96825.75;5368550;26;20000;-61
2024/04/16 09:32:45;;;;;;;48.15;9.48;;;;;;;17.44;63.66;96825.00;5367054;26;20044;-60
2024/04/16 09:35:11;;;;;;;53.28;9.13;;;;;;;17.52;70.91;96821.16;5365028;26;20011;-60
2024/04/16 09:37:37;;;;;;;67.72;17.85;;;;;;;16.71;79.53;96817.13;5428901;26;20976;-61
2024/04/16 09:40:03;;;;;;;64.30;17.83;;;;;;;17.85;82.40;96795.84;5404463;26;20011;-62
2024/04/16 09:42:30;;;;;;;98.57;22.70;;;;;;;17.07;65.51;96804.97;5401157;26;19999;-60
2024/04/16 09:44:57;;;;;;;163.10;124.22;;;;;;;15.48;67.70;96803.22;5400821;26;20003;-59
2024/04/16 09:47:24;;;;;;;68.78;9.07;;;;;;;16.37;86.48;96794.13;5398041;26;20047;-59
2024/04/16 09:49:54;;;;;;;44.85;7.35;;;;;;;17.53;89.49;96791.31;5405447;26;20006;-58
2024/04/16 09:52:20;;;;;;;86.28;43.28;;;;;;;17.21;76.77;96786.72;5400971;26;20081;-59
2024/04/16 09:54:48;;;;;;;44.90;6.90;;;;;;;18.85;81.38;96783.47;5400993;26;20003;-59
2024/04/16 09:57:15;;;;;;;53.47;8.50;;;;;;;18.34;60.04;96774.81;5402596;26;19995;-58
2024/04/16 09:59:41;;;;;;;52.70;11.48;;;;;;;16.70;67.72;96776.03;5399366;26;20011;-60
2024/04/16 10:02:10;;;;;;;55.95;8.93;;;;;;;16.48;76.87;96772.66;5403087;26;19996;-59
2024/04/16 10:04:36;;;;;;;116.97;39.88;;;;;;;17.04;71.42;96762.13;5400741;26;20422;-60
2024/04/16 10:07:03;;;;;;;41.53;6.80;;;;;;;18.50;82.26;96757.34;5402221;26;20347;-58
2024/04/16 10:09:32;;;;;;;78.25;8.95;;;;;;;17.70;61.64;96751.84;5398933;26;20379;-58
2024/04/16 10:11:59;;;;;;;68.13;8.70;;;;;;;17.13;70.20;96754.72;5399355;26;20068;-59
2024/04/16 10:14:25;;;;;;;71.40;9.45;;;;;;;18.12;58.45;96743.56;5400994;26;20010;-60
2024/04/16 10:16:51;;;;;;;73.68;44.72;;;;;;;16.73;61.72;96747.00;5401336;26;20514;-60
2024/04/16 10:19:17;;;;;;;53.05;7.65;;;;;;;17.50;85.33;96745.00;5399726;26;20540;-59
2024/04/16 10:21:46;;;;;;;153.93;122.97;;;;;;;17.04;65.99;96745.53;5400412;26;20243;-62
2024/04/16 10:24:16;;;;;;;45.33;7.65;;;;;;;16.65;69.89;96753.50;5401488;26;20511;-61
2024/04/16 10:26:43;;;;;;;66.22;13.82;;;;;;;16.52;77.57;96732.22;5397628;26;19995;-60
2024/04/16 10:29:12;;;;;;;381.73;341.20;;;;;;;15.80;76.36;96742.47;5403595;26;20003;-59
2024/04/16 10:31:39;;;;;;;120.80;65.93;;;;;;;16.16;55.76;96756.63;5398790;26;20568;-58
2024/04/16 10:34:04;;;;;;;82.60;31.90;;;;;;;15.93;56.81;96737.53;5396667;26;20022;-61
2024/04/16 10:36:32;;;;;;;81.10;29.23;;;;;;;17.87;53.54;96731.69;5399071;26;20456;-60
2024/04/16 10:38:58;;;;;;;53.95;6.90;;;;;;;17.46;54.89;96738.19;5406091;26;20013;-59
2024/04/16 10:41:30;;;;;;;81.85;18.75;;;;;;;18.36;48.37;96726.53;5397986;26;20718;-60
2024/04/16 10:43:56;;;;;;;48.13;8.05;;;;;;;20.34;45.03;96722.94;5398130;26;20014;-59
2024/04/16 10:46:22;;;;;;;54.38;6.55;;;;;;;19.43;45.99;96722.25;5395735;26;19999;-61
2024/04/16 10:48:48;;;;;;;50.13;7.35;;;;;;;19.99;44.85;96721.53;5401169;26;20446;-59
2024/04/16 10:51:14;;;;;;;67.78;16.23;;;;;;;18.92;41.80;96713.72;5400187;26;20027;-58
2024/04/16 10:53:40;;;;;;;73.68;8.20;;;;;;;18.66;45.80;96720.47;5397310;26;20035;-60
2024/04/16 10:56:08;;;;;;;70.80;15.02;;;;;;;18.99;45.73;96719.47;5398977;26;20007;-58
2024/04/16 10:58:34;;;;;;;90.03;30.77;;;;;;;17.57;49.20;96737.66;5397072;26;20003;-59
2024/04/16 11:01:01;;;;;;;118.18;79.32;;;;;;;17.10;49.38;96736.50;5400209;26;20096;-59
2024/04/16 11:03:26;;;;;;;134.35;75.00;;;;;;;17.55;49.53;96711.44;5394623;26;20398;-60
2024/04/16 11:05:52;;;;;;;47.55;6.20;;;;;;;18.26;45.29;96726.19;5405456;26;20073;-60
2024/04/16 11:08:17;;;;;;;30.98;5.70;;;;;;;16.88;50.12;96706.00;5404997;26;20054;-61
2024/04/16 11:10:49;;;;;;;370.75;294.88;;;;;;;16.29;48.11;96724.59;5402170;26;20018;-58